Time;durP1;ratioP1;P1;durP2;ratioP2;P2;SDS_P1;SDS_P2;PMS_P1;PMS_P2;Temp;Humidity;BMP_temperature;BMP_pressure;BME280_temperature;BME280_humidity;BME280_pressure;Samples;Min_cycle;Max_cycle;Signal;HPM_P1;HPM_P2
2021/10/15 00:00:43;;;;;;;54.83;29.85;;;;;;;;;;4958556;28;20118;-73
2021/10/15 00:03:09;;;;;;;45.67;29.85;;;;;;;;;;4957107;28;20037;-70
2021/10/15 00:05:35;;;;;;;48.05;29.60;;;;;;;;;;4952056;28;20030;-73
2021/10/15 00:08:01;;;;;;;48.28;29.92;;;;;;;;;;4953265;28;20038;-73
2021/10/15 00:10:27;;;;;;;44.10;28.88;;;;;;;;;;4954797;28;20035;-72
2021/10/15 00:12:53;;;;;;;45.75;29.70;;;;;;;;;;4954708;28;20023;-72
2021/10/15 00:15:20;;;;;;;42.58;28.20;;;;;;;;;;4954190;28;20034;-73
2021/10/15 00:17:46;;;;;;;37.85;26.10;;;;;;;;;;4951195;28;20165;-73
2021/10/15 00:20:12;;;;;;;39.45;25.58;;;;;;;;;;4955148;28;20015;-73
2021/10/15 00:22:38;;;;;;;38.50;27.15;;;;;;;;;;4958930;28;20062;-72
2021/10/15 00:25:04;;;;;;;37.50;26.40;;;;;;;;;;4954969;28;20047;-72
2021/10/15 00:27:30;;;;;;;36.15;26.52;;;;;;;;;;4955081;28;20031;-74
2021/10/15 00:29:56;;;;;;;39.05;26.58;;;;;;;;;;4954260;28;20050;-72
2021/10/15 00:32:23;;;;;;;40.50;28.50;;;;;;;;;;4953508;28;20059;-74
2021/10/15 00:34:49;;;;;;;41.45;27.42;;;;;;;;;;4953522;28;20126;-72
2021/10/15 00:37:19;;;;;;;40.58;27.70;;;;;;;;;;4954891;28;20062;-74
2021/10/15 00:39:45;;;;;;;43.25;29.65;;;;;;;;;;4954616;28;20046;-73
2021/10/15 00:42:11;;;;;;;39.53;26.08;;;;;;;;;;4954651;28;20395;-72
2021/10/15 00:44:38;;;;;;;37.25;25.98;;;;;;;;;;4955055;28;20071;-73
2021/10/15 00:47:04;;;;;;;38.17;27.08;;;;;;;;;;4951159;28;20090;-72
2021/10/15 00:49:30;;;;;;;44.15;28.70;;;;;;;;;;4936297;28;20474;-73
2021/10/15 00:51:57;;;;;;;49.90;33.13;;;;;;;;;;4953130;28;20024;-73
2021/10/15 00:54:23;;;;;;;50.83;34.30;;;;;;;;;;4934343;29;20034;-73
2021/10/15 00:56:49;;;;;;;50.55;35.35;;;;;;;;;;4956185;28;20030;-72
2021/10/15 00:59:15;;;;;;;51.45;34.13;;;;;;;;;;4957370;28;20490;-73
2021/10/15 01:01:42;;;;;;;47.92;33.08;;;;;;;;;;4953789;28;20039;-73
2021/10/15 01:04:08;;;;;;;47.67;30.80;;;;;;;;;;4935507;29;20113;-72
2021/10/15 01:06:35;;;;;;;39.83;29.30;;;;;;;;;;4953409;28;20027;-74
2021/10/15 01:09:01;;;;;;;38.28;27.33;;;;;;;;;;4953978;28;20045;-73
2021/10/15 01:11:28;;;;;;;42.38;30.23;;;;;;;;;;4952619;28;20462;-74
2021/10/15 01:13:54;;;;;;;38.88;29.23;;;;;;;;;;4953316;28;20027;-74
2021/10/15 01:16:25;;;;;;;39.72;28.10;;;;;;;;;;4958390;28;20027;-73
2021/10/15 01:18:51;;;;;;;37.15;27.08;;;;;;;;;;4955037;28;20481;-72
2021/10/15 01:21:17;;;;;;;39.95;27.38;;;;;;;;;;4953999;28;20046;-73
2021/10/15 01:23:43;;;;;;;43.90;28.17;;;;;;;;;;4955007;28;20086;-73
2021/10/15 01:26:14;;;;;;;37.97;25.95;;;;;;;;;;4952399;28;20459;-72
2021/10/15 01:28:40;;;;;;;37.53;25.90;;;;;;;;;;4953832;28;20061;-71
2021/10/15 01:31:06;;;;;;;36.47;25.90;;;;;;;;;;4953838;28;20054;-73
2021/10/15 01:33:35;;;;;;;37.20;26.63;;;;;;;;;;4953828;28;20050;-73
2021/10/15 01:36:01;;;;;;;36.40;26.45;;;;;;;;;;4953036;28;20085;-73
2021/10/15 01:38:27;;;;;;;41.20;27.42;;;;;;;;;;4953069;28;20031;-74
2021/10/15 01:40:53;;;;;;;39.50;26.95;;;;;;;;;;4953569;28;20020;-73
2021/10/15 01:43:25;;;;;;;40.35;27.27;;;;;;;;;;4951998;28;20031;-74
2021/10/15 01:45:52;;;;;;;38.90;27.02;;;;;;;;;;4952104;28;20042;-74
2021/10/15 01:48:18;;;;;;;44.90;28.35;;;;;;;;;;4952611;28;20040;-68
2021/10/15 01:50:44;;;;;;;43.70;28.52;;;;;;;;;;4950542;28;20031;-70
2021/10/15 01:53:11;;;;;;;39.70;27.70;;;;;;;;;;4952713;28;20031;-73
2021/10/15 01:55:37;;;;;;;40.80;28.42;;;;;;;;;;4947617;28;20031;-74
2021/10/15 01:58:03;;;;;;;40.70;28.38;;;;;;;;;;4952684;28;20513;-72
2021/10/15 02:00:29;;;;;;;44.80;28.77;;;;;;;;;;4953373;28;20039;-73
2021/10/15 02:02:55;;;;;;;46.30;29.10;;;;;;;;;;4952149;28;20482;-72
2021/10/15 02:05:22;;;;;;;42.90;27.85;;;;;;;;;;4953216;28;20031;-73
2021/10/15 02:07:48;;;;;;;38.08;26.15;;;;;;;;;;4953618;28;20027;-73
2021/10/15 02:10:15;;;;;;;39.97;25.73;;;;;;;;;;4953233;28;20256;-72
2021/10/15 02:12:41;;;;;;;38.50;25.58;;;;;;;;;;4952763;28;20035;-73
2021/10/15 02:15:08;;;;;;;41.63;27.05;;;;;;;;;;4935643;28;20389;-73
2021/10/15 02:17:34;;;;;;;45.00;27.38;;;;;;;;;;4953230;28;20184;-73
2021/10/15 02:20:00;;;;;;;42.28;27.27;;;;;;;;;;4955977;28;20029;-71
2021/10/15 02:22:26;;;;;;;44.10;28.13;;;;;;;;;;4946532;28;20027;-73
2021/10/15 02:24:52;;;;;;;49.05;29.40;;;;;;;;;;4952794;28;20031;-72
2021/10/15 02:27:18;;;;;;;62.78;33.55;;;;;;;;;;4949801;28;20090;-73
2021/10/15 02:29:44;;;;;;;62.45;33.80;;;;;;;;;;4957340;28;20045;-71
2021/10/15 02:32:10;;;;;;;68.63;35.58;;;;;;;;;;4956241;28;20023;-72
2021/10/15 02:34:36;;;;;;;66.80;34.83;;;;;;;;;;4939369;29;20058;-73
2021/10/15 02:37:02;;;;;;;70.60;36.25;;;;;;;;;;4957076;28;20102;-71
2021/10/15 02:39:29;;;;;;;58.42;33.20;;;;;;;;;;4963309;28;20102;-73
2021/10/15 02:41:55;;;;;;;48.13;29.80;;;;;;;;;;4956942;28;20036;-74
2021/10/15 02:44:21;;;;;;;42.40;26.58;;;;;;;;;;4953529;28;20035;-73
2021/10/15 02:46:47;;;;;;;39.80;26.35;;;;;;;;;;4957126;28;20509;-71
2021/10/15 02:49:13;;;;;;;42.75;27.63;;;;;;;;;;4956425;28;20051;-73
2021/10/15 02:51:39;;;;;;;58.72;30.90;;;;;;;;;;4955851;28;20023;-73
2021/10/15 02:54:05;;;;;;;79.72;35.78;;;;;;;;;;4956515;28;20045;-74
2021/10/15 02:56:31;;;;;;;77.90;37.00;;;;;;;;;;4955874;28;20043;-74
2021/10/15 02:58:57;;;;;;;74.90;36.75;;;;;;;;;;4956727;28;20034;-73
2021/10/15 03:01:24;;;;;;;46.97;30.15;;;;;;;;;;4952389;28;20027;-73
2021/10/15 03:03:51;;;;;;;44.47;27.70;;;;;;;;;;4955148;28;20394;-74
2021/10/15 03:06:19;;;;;;;140.52;53.85;;;;;;;;;;4954533;28;20082;-72
2021/10/15 03:08:45;;;;;;;176.75;64.82;;;;;;;;;;4955850;28;20039;-69
2021/10/15 03:11:12;;;;;;;176.25;66.68;;;;;;;;;;4956165;28;20023;-74
2021/10/15 03:13:38;;;;;;;127.53;52.88;;;;;;;;;;4953747;28;20422;-73
2021/10/15 03:16:05;;;;;;;93.15;44.45;;;;;;;;;;4960712;28;20835;-73
2021/10/15 03:18:31;;;;;;;41.45;24.02;;;;;;;;;;4955234;28;20050;-73
2021/10/15 03:20:57;;;;;;;41.58;23.10;;;;;;;;;;4956174;28;20023;-73
2021/10/15 03:23:23;;;;;;;35.58;22.30;;;;;;;;;;4952070;28;20030;-74
2021/10/15 03:25:49;;;;;;;38.95;23.20;;;;;;;;;;4956361;28;20393;-69
2021/10/15 03:28:15;;;;;;;35.35;23.30;;;;;;;;;;4955195;28;20125;-74
2021/10/15 03:30:41;;;;;;;35.10;22.88;;;;;;;;;;4954240;28;20039;-72
2021/10/15 03:33:07;;;;;;;34.90;22.65;;;;;;;;;;4957854;28;20027;-74
2021/10/15 03:35:33;;;;;;;31.80;19.98;;;;;;;;;;4956429;28;20498;-74
2021/10/15 03:37:59;;;;;;;31.85;20.00;;;;;;;;;;4955460;28;20106;-74
2021/10/15 03:40:26;;;;;;;29.42;19.10;;;;;;;;;;4955148;28;20034;-72
2021/10/15 03:42:52;;;;;;;28.85;17.88;;;;;;;;;;4956115;28;20024;-74
2021/10/15 03:45:18;;;;;;;29.88;18.70;;;;;;;;;;4954303;28;20062;-74
2021/10/15 03:47:45;;;;;;;26.13;17.42;;;;;;;;;;4954255;28;20028;-74
2021/10/15 03:50:12;;;;;;;27.88;17.77;;;;;;;;;;4954823;28;20050;-74
2021/10/15 03:52:38;;;;;;;26.52;16.98;;;;;;;;;;4945758;28;20035;-74
2021/10/15 03:55:05;;;;;;;30.58;17.45;;;;;;;;;;4950048;28;20081;-74
2021/10/15 03:57:31;;;;;;;31.58;18.60;;;;;;;;;;4954881;28;21277;-73
2021/10/15 03:59:57;;;;;;;26.58;17.20;;;;;;;;;;4956410;28;20041;-73
2021/10/15 04:02:24;;;;;;;24.58;17.13;;;;;;;;;;4955485;28;20078;-70
2021/10/15 04:04:50;;;;;;;24.20;17.98;;;;;;;;;;4955774;28;20381;-74
2021/10/15 04:07:16;;;;;;;30.58;19.95;;;;;;;;;;4954489;28;20031;-69
2021/10/15 04:09:42;;;;;;;26.25;19.27;;;;;;;;;;4955447;28;20671;-69
2021/10/15 04:12:08;;;;;;;30.17;20.67;;;;;;;;;;4954627;28;20082;-69
2021/10/15 04:14:34;;;;;;;38.35;22.48;;;;;;;;;;4955047;28;20074;-73
2021/10/15 04:17:02;;;;;;;40.80;24.92;;;;;;;;;;4955224;28;20431;-72
2021/10/15 04:19:28;;;;;;;40.55;26.98;;;;;;;;;;4954391;28;20173;-69
2021/10/15 04:21:54;;;;;;;51.95;30.65;;;;;;;;;;4952701;28;20027;-68
2021/10/15 04:24:20;;;;;;;53.00;31.00;;;;;;;;;;4954187;28;20067;-73
2021/10/15 04:26:46;;;;;;;78.10;32.83;;;;;;;;;;4952841;28;20090;-73
2021/10/15 04:29:12;;;;;;;114.90;33.85;;;;;;;;;;4950729;28;20527;-73
2021/10/15 04:31:40;;;;;;;157.93;33.15;;;;;;;;;;4953927;28;20039;-73
2021/10/15 04:34:06;;;;;;;38.55;24.30;;;;;;;;;;4956078;28;20180;-71
2021/10/15 04:36:32;;;;;;;39.28;23.58;;;;;;;;;;4954845;28;20035;-73
2021/10/15 04:38:58;;;;;;;36.03;21.75;;;;;;;;;;4954830;28;20035;-73
2021/10/15 04:41:24;;;;;;;37.00;21.55;;;;;;;;;;4954729;28;20050;-71
2021/10/15 04:43:52;;;;;;;49.90;27.73;;;;;;;;;;4953844;28;20042;-73
2021/10/15 04:46:18;;;;;;;54.20;27.48;;;;;;;;;;4939785;28;20112;-73
2021/10/15 04:48:45;;;;;;;44.65;24.63;;;;;;;;;;4953475;28;20043;-73
2021/10/15 04:51:13;;;;;;;43.47;26.67;;;;;;;;;;4952963;28;20027;-73
2021/10/15 04:53:39;;;;;;;46.08;26.17;;;;;;;;;;4955267;28;20131;-73
2021/10/15 04:56:05;;;;;;;41.45;24.73;;;;;;;;;;4953871;28;20023;-72
2021/10/15 04:58:31;;;;;;;41.05;23.35;;;;;;;;;;4954698;28;20030;-71
2021/10/15 05:00:57;;;;;;;38.25;23.63;;;;;;;;;;4950124;28;20032;-72
2021/10/15 05:03:25;;;;;;;47.88;25.13;;;;;;;;;;4959647;28;20054;-72
2021/10/15 05:05:54;;;;;;;61.50;31.45;;;;;;;;;;4953659;28;20405;-73
2021/10/15 05:08:21;;;;;;;58.38;31.55;;;;;;;;;;4954076;28;20103;-72
2021/10/15 05:10:48;;;;;;;52.33;28.23;;;;;;;;;;4956132;28;20027;-73
2021/10/15 05:13:15;;;;;;;53.90;27.85;;;;;;;;;;4952457;28;20034;-67
2021/10/15 05:15:44;;;;;;;45.42;27.30;;;;;;;;;;4953868;29;20039;-73
2021/10/15 05:18:13;;;;;;;47.63;26.27;;;;;;;;;;4950978;28;20055;-68
2021/10/15 05:20:39;;;;;;;51.80;26.70;;;;;;;;;;4959026;28;20047;-72
2021/10/15 05:23:21;;;;;;;50.47;28.05;;;;;;;;;;5108464;27;20402;-72
2021/10/15 05:25:47;;;;;;;56.15;32.45;;;;;;;;;;5113130;28;20011;-73
2021/10/15 05:28:13;;;;;;;57.85;30.52;;;;;;;;;;5106676;28;20365;-67
2021/10/15 05:30:39;;;;;;;54.17;31.15;;;;;;;;;;5104051;28;20377;-76
2021/10/15 05:33:07;;;;;;;55.83;31.30;;;;;;;;;;5111614;28;20024;-69
2021/10/15 05:35:33;;;;;;;60.30;30.83;;;;;;;;;;5102529;28;20031;-70
2021/10/15 05:37:59;;;;;;;59.25;32.45;;;;;;;;;;5106365;28;20078;-71
2021/10/15 05:40:26;;;;;;;78.97;35.28;;;;;;;;;;5108493;28;20036;-72
2021/10/15 05:42:52;;;;;;;76.50;37.90;;;;;;;;;;5109778;28;20035;-71
2021/10/15 05:45:18;;;;;;;77.32;40.17;;;;;;;;;;5115087;28;20104;-70
2021/10/15 05:47:44;;;;;;;77.65;36.90;;;;;;;;;;5109976;28;20031;-71
2021/10/15 05:50:10;;;;;;;63.05;33.13;;;;;;;;;;5107747;28;20035;-68
2021/10/15 05:52:46;;;;;;;55.10;28.98;;;;;;;;;;5107319;28;20036;-64
2021/10/15 06:00:23;;;;;;;65.80;33.72;;;;;;;;;;5100979;28;20491;-71
2021/10/15 06:02:49;;;;;;;71.63;36.83;;;;;;;;;;5102621;28;20039;-64
2021/10/15 06:16:17;;;;;;;75.90;43.30;;;;;;;;;;5099263;28;20046;-70
2021/10/15 06:18:51;;;;;;;82.75;43.63;;;;;;;;;;5101199;28;20028;-72
2021/10/15 06:21:18;;;;;;;82.43;43.78;;;;;;;;;;5108543;28;20047;-70
2021/10/15 06:23:44;;;;;;;77.75;43.25;;;;;;;;;;5117709;28;20095;-68
2021/10/15 06:26:10;;;;;;;76.70;39.85;;;;;;;;;;5111753;28;20435;-72
2021/10/15 06:31:12;;;;;;;77.95;44.47;;;;;;;;;;5833570;22;20033;-72
2021/10/15 06:33:40;;;;;;;81.20;44.92;;;;;;;;;;5102058;28;20064;-77
2021/10/15 06:36:06;;;;;;;91.22;45.97;;;;;;;;;;5115974;28;20071;-73
2021/10/15 06:38:51;;;;;;;72.97;42.67;;;;;;;;;;5097813;28;20043;-73
2021/10/15 06:41:21;;;;;;;80.63;45.63;;;;;;;;;;5075783;28;20044;-75
2021/10/15 06:43:53;;;;;;;77.22;46.70;;;;;;;;;;5081468;28;20102;-77
2021/10/15 06:47:05;;;;;;;82.70;49.00;;;;;;;;;;5093054;28;20028;-78
2021/10/15 06:49:32;;;;;;;77.38;47.20;;;;;;;;;;5110871;28;20381;-77
2021/10/15 06:51:59;;;;;;;71.07;42.28;;;;;;;;;;5128205;28;20024;-71
2021/10/15 06:54:31;;;;;;;75.00;38.92;;;;;;;;;;5100204;28;20028;-74
2021/10/15 06:56:57;;;;;;;61.65;37.67;;;;;;;;;;5097229;28;20051;-71
2021/10/15 06:59:23;;;;;;;64.57;37.63;;;;;;;;;;5101564;28;20027;-72
2021/10/15 07:01:50;;;;;;;67.75;38.83;;;;;;;;;;5093330;28;20456;-77
2021/10/15 07:04:36;;;;;;;63.05;36.97;;;;;;;;;;5102389;28;20050;-76
2021/10/15 07:07:11;;;;;;;61.53;37.15;;;;;;;;;;5100632;28;20031;-74
2021/10/15 07:09:45;;;;;;;62.10;39.38;;;;;;;;;;5104637;28;20027;-76
2021/10/15 07:12:11;;;;;;;68.55;39.55;;;;;;;;;;5105665;28;20034;-72
2021/10/15 07:14:37;;;;;;;79.05;41.17;;;;;;;;;;5107478;28;20484;-74
2021/10/15 07:17:03;;;;;;;90.88;50.97;;;;;;;;;;5096090;28;20381;-73
2021/10/15 07:19:29;;;;;;;119.93;80.05;;;;;;;;;;5089321;28;20023;-74
2021/10/15 07:21:55;;;;;;;117.40;74.40;;;;;;;;;;5089777;28;20054;-72
2021/10/15 07:24:21;;;;;;;69.22;40.50;;;;;;;;;;5088767;28;20048;-74
2021/10/15 07:26:47;;;;;;;60.40;35.55;;;;;;;;;;5092802;28;20081;-74
2021/10/15 07:29:16;;;;;;;51.35;33.65;;;;;;;;;;5088753;28;20069;-73
2021/10/15 07:31:42;;;;;;;55.55;33.60;;;;;;;;;;5094587;28;20047;-70
2021/10/15 07:34:08;;;;;;;48.00;30.95;;;;;;;;;;5091707;28;20036;-74
2021/10/15 07:36:47;;;;;;;49.80;31.55;;;;;;;;;;5095603;28;20055;-77
2021/10/15 07:39:13;;;;;;;47.17;31.25;;;;;;;;;;5100066;28;20043;-69
2021/10/15 07:42:05;;;;;;;49.17;30.92;;;;;;;;;;5104782;28;20041;-80
2021/10/15 07:44:32;;;;;;;48.53;31.17;;;;;;;;;;5102598;28;20028;-77
2021/10/15 07:47:01;;;;;;;44.58;29.20;;;;;;;;;;5093949;28;20103;-75
2021/10/15 07:49:27;;;;;;;41.70;29.17;;;;;;;;;;5090589;28;20012;-74
2021/10/15 07:51:53;;;;;;;45.83;30.35;;;;;;;;;;5089809;28;20111;-67
2021/10/15 07:54:21;;;;;;;45.95;29.27;;;;;;;;;;5091615;28;20082;-66
2021/10/15 07:56:47;;;;;;;43.72;29.70;;;;;;;;;;5087641;28;20043;-67
2021/10/15 07:59:13;;;;;;;45.45;29.13;;;;;;;;;;5088434;28;20028;-73
2021/10/15 08:01:39;;;;;;;45.80;31.00;;;;;;;;;;5090504;28;20048;-65
2021/10/15 08:04:05;;;;;;;43.17;29.00;;;;;;;;;;5111547;28;20035;-68
2021/10/15 08:06:32;;;;;;;44.38;27.95;;;;;;;;;;5103044;28;20537;-72
2021/10/15 08:08:58;;;;;;;48.83;32.70;;;;;;;;;;5103974;28;20020;-67
2021/10/15 08:11:24;;;;;;;44.35;28.92;;;;;;;;;;5089735;28;20075;-70
2021/10/15 08:13:50;;;;;;;40.45;29.25;;;;;;;;;;5091929;28;20032;-75
2021/10/15 08:16:18;;;;;;;49.45;29.48;;;;;;;;;;5095892;28;20020;-77
2021/10/15 08:18:44;;;;;;;47.75;30.20;;;;;;;;;;5093771;28;20020;-74
2021/10/15 08:21:10;;;;;;;44.75;29.75;;;;;;;;;;5091857;28;20028;-74
2021/10/15 08:23:46;;;;;;;46.47;31.52;;;;;;;;;;5094240;28;20055;-77
2021/10/15 08:26:12;;;;;;;47.22;31.02;;;;;;;;;;5268186;22;20034;-74
2021/10/15 08:28:40;;;;;;;50.67;32.85;;;;;;;;;;5102401;28;20032;-74
2021/10/15 08:31:06;;;;;;;53.72;35.47;;;;;;;;;;5083087;28;20031;-76
2021/10/15 08:33:32;;;;;;;49.83;34.85;;;;;;;;;;5081378;28;21162;-70
2021/10/15 08:36:01;;;;;;;55.40;34.13;;;;;;;;;;5102550;28;20024;-64
2021/10/15 08:38:54;;;;;;;51.95;35.33;;;;;;;;;;5096802;28;20034;-71
2021/10/15 08:41:38;;;;;;;51.60;33.87;;;;;;;;;;5107844;28;20029;-71
2021/10/15 08:44:12;;;;;;;51.17;34.45;;;;;;;;;;5074578;28;20296;-69
2021/10/15 08:46:44;;;;;;;68.13;38.42;;;;;;;;;;5089787;28;20032;-67
2021/10/15 08:49:10;;;;;;;56.25;37.45;;;;;;;;;;5099874;28;20095;-73
2021/10/15 08:51:37;;;;;;;51.78;37.45;;;;;;;;;;5095706;28;20028;-77
2021/10/15 08:54:04;;;;;;;64.13;39.88;;;;;;;;;;5097690;28;20043;-71
2021/10/15 08:56:31;;;;;;;56.35;37.33;;;;;;;;;;5091406;28;20017;-75
2021/10/15 08:58:58;;;;;;;64.70;39.03;;;;;;;;;;5091338;28;20088;-72
2021/10/15 09:01:30;;;;;;;54.05;36.90;;;;;;;;;;5090628;28;20034;-66
2021/10/15 09:04:02;;;;;;;60.83;39.28;;;;;;;;;;5087135;28;20028;-72
2021/10/15 09:06:34;;;;;;;54.42;36.22;;;;;;;;;;5088712;28;20035;-75
2021/10/15 09:09:00;;;;;;;55.90;36.35;;;;;;;;;;5096963;28;20027;-66
2021/10/15 09:11:42;;;;;;;55.97;36.63;;;;;;;;;;5103098;28;20041;-73
2021/10/15 09:14:10;;;;;;;57.97;37.15;;;;;;;;;;5090848;28;20020;-74
2021/10/15 09:16:54;;;;;;;55.55;35.45;;;;;;;;;;5091317;28;20024;-73
2021/10/15 09:19:25;;;;;;;56.10;35.40;;;;;;;;;;5096531;28;20168;-74
2021/10/15 09:22:12;;;;;;;56.85;36.63;;;;;;;;;;5099331;28;20032;-72
2021/10/15 09:24:49;;;;;;;42.45;30.55;;;;;;;;;;5107613;28;20028;-69
2021/10/15 09:27:16;;;;;;;44.05;30.20;;;;;;;;;;5101782;28;20132;-65
2021/10/15 09:29:48;;;;;;;43.30;29.55;;;;;;;;;;5085539;28;20450;-65
2021/10/15 09:32:14;;;;;;;41.83;28.38;;;;;;;;;;5087932;28;20116;-70
2021/10/15 09:34:40;;;;;;;47.85;32.30;;;;;;;;;;5090777;28;20031;-63
2021/10/15 09:37:11;;;;;;;35.97;26.52;;;;;;;;;;5091715;28;20028;-73
2021/10/15 09:39:37;;;;;;;43.90;30.85;;;;;;;;;;5090412;28;20027;-65
2021/10/15 09:42:03;;;;;;;47.60;32.78;;;;;;;;;;5090940;28;20077;-70
2021/10/15 09:44:32;;;;;;;36.28;25.08;;;;;;;;;;5090637;28;20024;-66
2021/10/15 09:47:17;;;;;;;35.58;25.75;;;;;;;;;;5088976;28;20035;-65
2021/10/15 09:49:50;;;;;;;35.25;23.90;;;;;;;;;;5086622;28;20039;-63
2021/10/15 09:52:35;;;;;;;35.08;24.75;;;;;;;;;;5090714;28;20028;-76
2021/10/15 09:55:06;;;;;;;37.00;24.85;;;;;;;;;;5089572;28;20071;-72
2021/10/15 09:57:33;;;;;;;35.05;24.60;;;;;;;;;;5089878;28;21804;-67
2021/10/15 10:00:00;;;;;;;38.67;26.98;;;;;;;;;;5090468;28;20029;-74
2021/10/15 10:02:27;;;;;;;36.30;26.40;;;;;;;;;;5089863;28;20036;-68
2021/10/15 10:04:55;;;;;;;32.20;24.55;;;;;;;;;;5090557;28;20030;-64
2021/10/15 10:07:21;;;;;;;32.63;24.48;;;;;;;;;;5090173;28;20069;-70
2021/10/15 10:09:47;;;;;;;32.58;24.05;;;;;;;;;;5093289;28;20143;-73
2021/10/15 10:12:13;;;;;;;35.42;25.05;;;;;;;;;;5094655;28;20034;-73
2021/10/15 10:14:39;;;;;;;33.55;24.83;;;;;;;;;;5095376;28;20020;-71
2021/10/15 10:17:08;;;;;;;35.58;24.67;;;;;;;;;;5094636;28;20028;-74
2021/10/15 10:19:36;;;;;;;33.17;24.88;;;;;;;;;;5092762;28;20051;-68
2021/10/15 10:22:03;;;;;;;38.78;26.48;;;;;;;;;;5092292;28;20544;-66
2021/10/15 10:27:25;;;;;;;34.53;25.85;;;;;;;;;;5356549;22;20092;-74
2021/10/15 10:29:54;;;;;;;37.47;27.88;;;;;;;;;;5052271;28;20021;-72
2021/10/15 10:32:20;;;;;;;42.13;27.70;;;;;;;;;;5053977;28;20025;-74
2021/10/15 10:34:46;;;;;;;37.05;26.05;;;;;;;;;;5054798;28;20470;-71
2021/10/15 10:37:13;;;;;;;37.20;27.38;;;;;;;;;;5047506;28;20071;-74
2021/10/15 10:39:39;;;;;;;41.35;28.60;;;;;;;;;;5058088;28;20021;-74
2021/10/15 10:42:11;;;;;;;39.63;26.92;;;;;;;;;;5050308;28;20120;-74
2021/10/15 10:44:49;;;;;;;37.38;28.40;;;;;;;;;;5056436;28;20025;-73
2021/10/15 10:47:19;;;;;;;36.60;27.52;;;;;;;;;;5054079;28;20163;-71
2021/10/15 10:50:00;;;;;;;40.70;28.90;;;;;;;;;;5054993;28;20561;-74
2021/10/15 10:52:27;;;;;;;42.35;29.05;;;;;;;;;;5054277;28;20505;-73
2021/10/15 10:54:53;;;;;;;43.97;29.73;;;;;;;;;;5053346;28;20118;-72
2021/10/15 10:57:20;;;;;;;42.05;28.65;;;;;;;;;;5052000;28;20037;-71
2021/10/15 10:59:46;;;;;;;41.30;29.08;;;;;;;;;;5049316;28;20047;-71
2021/10/15 11:02:19;;;;;;;37.33;28.65;;;;;;;;;;5051508;28;20039;-71
2021/10/15 11:04:45;;;;;;;42.22;28.95;;;;;;;;;;5052832;28;20021;-74
2021/10/15 11:07:17;;;;;;;37.55;28.30;;;;;;;;;;5052845;28;20200;-74
2021/10/15 11:09:54;;;;;;;37.53;27.38;;;;;;;;;;5053283;28;20052;-70
2021/10/15 11:12:43;;;;;;;40.00;27.88;;;;;;;;;;5034264;28;20021;-66
2021/10/15 11:15:13;;;;;;;38.10;27.42;;;;;;;;;;5052171;28;20029;-69
2021/10/15 11:17:45;;;;;;;42.03;28.55;;;;;;;;;;5048855;28;20063;-74
2021/10/15 11:20:20;;;;;;;47.08;35.22;;;;;;;;;;5052560;28;20111;-74
2021/10/15 11:22:51;;;;;;;44.65;29.75;;;;;;;;;;5052043;28;20035;-74
2021/10/15 11:25:17;;;;;;;44.35;32.22;;;;;;;;;;5053039;28;20047;-74
2021/10/15 11:27:43;;;;;;;42.67;30.08;;;;;;;;;;5051966;28;20091;-71
2021/10/15 11:30:10;;;;;;;48.00;31.60;;;;;;;;;;5053395;28;20025;-74
2021/10/15 11:32:38;;;;;;;52.90;32.17;;;;;;;;;;5052853;28;20467;-66
2021/10/15 11:35:07;;;;;;;40.38;29.42;;;;;;;;;;5045511;28;20471;-74
2021/10/15 11:37:52;;;;;;;37.83;28.33;;;;;;;;;;5053181;28;20037;-74
2021/10/15 11:40:18;;;;;;;38.13;28.40;;;;;;;;;;5052951;28;20087;-74
2021/10/15 11:42:44;;;;;;;38.80;27.52;;;;;;;;;;5053665;28;20029;-73
2021/10/15 11:45:24;;;;;;;36.85;25.92;;;;;;;;;;5053609;28;20032;-67
2021/10/15 11:48:07;;;;;;;39.78;28.35;;;;;;;;;;5031095;28;20443;-74
2021/10/15 11:50:36;;;;;;;38.33;26.23;;;;;;;;;;5046070;28;20056;-74
2021/10/15 11:53:02;;;;;;;38.85;28.73;;;;;;;;;;5035571;28;20025;-71
2021/10/15 11:55:39;;;;;;;39.30;27.23;;;;;;;;;;5053427;28;20036;-74
2021/10/15 11:58:15;;;;;;;43.15;26.80;;;;;;;;;;5053506;28;20033;-75
2021/10/15 12:00:57;;;;;;;39.78;28.65;;;;;;;;;;5052562;28;20036;-75
2021/10/15 12:03:30;;;;;;;35.47;26.70;;;;;;;;;;5027413;28;20037;-73
2021/10/15 12:06:09;;;;;;;38.15;26.85;;;;;;;;;;5050485;28;20025;-74
2021/10/15 12:08:35;;;;;;;32.97;25.85;;;;;;;;;;5040026;28;20021;-74
2021/10/15 12:11:02;;;;;;;40.33;28.13;;;;;;;;;;5052062;28;20033;-74
2021/10/15 12:13:28;;;;;;;37.33;27.65;;;;;;;;;;5053050;28;20031;-72
2021/10/15 12:15:56;;;;;;;35.25;25.80;;;;;;;;;;5034375;28;20033;-74
2021/10/15 12:18:30;;;;;;;36.20;26.40;;;;;;;;;;5035289;28;20037;-71
2021/10/15 12:21:09;;;;;;;36.95;26.05;;;;;;;;;;5051976;28;20029;-71
2021/10/15 12:23:51;;;;;;;45.72;28.00;;;;;;;;;;5053129;28;20037;-75
2021/10/15 12:26:18;;;;;;;39.30;27.00;;;;;;;;;;5052617;28;20033;-74
2021/10/15 12:28:45;;;;;;;34.20;25.83;;;;;;;;;;5038274;28;20414;-75
2021/10/15 12:31:31;;;;;;;35.70;25.30;;;;;;;;;;5013974;28;20124;-75
2021/10/15 12:34:01;;;;;;;35.88;26.60;;;;;;;;;;5032546;28;20101;-74
2021/10/15 12:36:27;;;;;;;37.22;25.75;;;;;;;;;;5031757;28;20029;-74
2021/10/15 12:39:13;;;;;;;34.67;26.55;;;;;;;;;;5032625;28;20046;-73
2021/10/15 12:41:39;;;;;;;36.25;25.75;;;;;;;;;;5032434;28;20026;-75
2021/10/15 12:44:20;;;;;;;33.53;24.73;;;;;;;;;;5032479;28;20132;-75
2021/10/15 12:46:55;;;;;;;36.13;24.85;;;;;;;;;;5027777;28;20112;-71
2021/10/15 12:49:21;;;;;;;39.20;25.85;;;;;;;;;;5030460;28;20029;-71
2021/10/15 12:51:48;;;;;;;38.15;26.13;;;;;;;;;;5032828;28;20022;-75
2021/10/15 12:54:14;;;;;;;38.10;26.30;;;;;;;;;;5032576;28;20029;-63
2021/10/15 12:56:42;;;;;;;39.13;25.83;;;;;;;;;;5032374;28;20037;-74
2021/10/15 12:59:16;;;;;;;45.92;33.58;;;;;;;;;;5014213;28;20636;-75
2021/10/15 13:01:45;;;;;;;36.20;28.50;;;;;;;;;;5031026;28;20072;-69
2021/10/15 13:04:11;;;;;;;43.63;28.60;;;;;;;;;;5033068;28;20068;-75
2021/10/15 13:06:37;;;;;;;32.33;24.48;;;;;;;;;;5032239;28;20021;-63
2021/10/15 13:09:04;;;;;;;31.38;22.73;;;;;;;;;;5032321;28;20032;-73
2021/10/15 13:11:31;;;;;;;34.17;23.48;;;;;;;;;;5031608;28;20049;-74
2021/10/15 13:13:59;;;;;;;34.50;24.60;;;;;;;;;;5031389;28;20049;-73
2021/10/15 13:16:26;;;;;;;31.33;23.38;;;;;;;;;;5032955;28;20033;-74
2021/10/15 13:18:52;;;;;;;31.02;22.58;;;;;;;;;;5014636;28;20088;-68
2021/10/15 13:21:19;;;;;;;30.48;23.55;;;;;;;;;;5031157;28;20037;-73
2021/10/15 13:23:45;;;;;;;34.55;24.92;;;;;;;;;;5014223;28;20402;-65
2021/10/15 13:26:11;;;;;;;32.55;24.48;;;;;;;;;;5031792;28;20444;-74
2021/10/15 13:28:38;;;;;;;33.03;24.67;;;;;;;;;;5031817;28;20061;-63
2021/10/15 13:31:04;;;;;;;33.78;24.98;;;;;;;;;;5030995;28;20030;-64
2021/10/15 13:33:30;;;;;;;38.22;28.13;;;;;;;;;;5031609;28;20100;-74
2021/10/15 13:36:00;;;;;;;34.58;25.45;;;;;;;;;;5031964;28;20026;-71
2021/10/15 13:38:28;;;;;;;32.63;24.20;;;;;;;;;;5032678;28;20479;-76
2021/10/15 13:41:13;;;;;;;34.13;24.40;;;;;;;;;;5034013;28;20038;-74
2021/10/15 13:51:58;;;;;;;38.25;24.45;;;;;;;;;;4988525;28;20041;-69
2021/10/15 13:54:24;;;;;;;32.25;25.27;;;;;;;;;;4992082;28;20088;-72
2021/10/15 13:56:50;;;;;;;36.38;25.25;;;;;;;;;;4992239;28;20069;-71
2021/10/15 13:59:24;;;;;;;32.25;25.02;;;;;;;;;;4983488;28;20035;-72
2021/10/15 14:01:57;;;;;;;34.40;25.33;;;;;;;;;;4984906;28;20077;-77
2021/10/15 14:04:28;;;;;;;40.73;27.67;;;;;;;;;;4989845;28;20039;-76
2021/10/15 14:06:54;;;;;;;50.20;30.67;;;;;;;;;;4979259;28;20697;-76
2021/10/15 14:09:21;;;;;;;54.38;33.65;;;;;;;;;;4986063;28;20507;-75
2021/10/15 14:11:47;;;;;;;46.53;32.92;;;;;;;;;;4991078;28;20117;-70
2021/10/15 14:14:13;;;;;;;51.83;34.67;;;;;;;;;;4990169;28;20047;-71
2021/10/15 14:16:39;;;;;;;81.35;58.25;;;;;;;;;;4977569;28;20043;-69
2021/10/15 14:19:05;;;;;;;63.78;46.25;;;;;;;;;;5002875;28;20066;-75
2021/10/15 14:21:32;;;;;;;63.78;44.22;;;;;;;;;;5005521;28;20074;-69
2021/10/15 14:23:58;;;;;;;79.95;55.50;;;;;;;;;;5030342;28;20483;-74
2021/10/15 14:26:24;;;;;;;62.05;43.75;;;;;;;;;;5036257;28;20386;-73
2021/10/15 14:28:51;;;;;;;58.35;41.05;;;;;;;;;;5034488;28;20062;-68
2021/10/15 14:31:17;;;;;;;63.72;46.05;;;;;;;;;;5034507;28;20463;-72
2021/10/15 14:33:44;;;;;;;47.33;36.40;;;;;;;;;;5038038;28;20025;-71
2021/10/15 14:36:10;;;;;;;57.03;41.85;;;;;;;;;;5036744;28;20055;-74
2021/10/15 14:38:36;;;;;;;51.83;38.83;;;;;;;;;;5036597;28;20030;-72
2021/10/15 14:41:05;;;;;;;56.75;39.45;;;;;;;;;;5042313;28;20029;-77
2021/10/15 14:43:31;;;;;;;64.07;43.28;;;;;;;;;;5019721;28;20069;-68
2021/10/15 14:45:57;;;;;;;58.55;40.55;;;;;;;;;;5036431;28;20025;-73
2021/10/15 14:48:23;;;;;;;61.85;39.65;;;;;;;;;;5032479;28;20030;-74
2021/10/15 14:50:49;;;;;;;63.53;38.72;;;;;;;;;;5035022;28;20556;-69
2021/10/15 14:53:15;;;;;;;58.63;38.63;;;;;;;;;;5035527;28;20033;-66